ENAT/ALF METAR and TAF weather

Enter ICAO airport designator
Station Type Date Time Source
ENAT METAR 2018/10/21 05:50 UTC NOAA

ENAT 210550Z AUTO 18011KT 9999 BKN072/// OVC086/// 05/01 Q0993 RMK WIND 700FT 19024KT


Station Type Date Time Source
ENAT Decoded METAR 2018/10/21 05:50 UTC NOAA

Alta Lufthavn, Norway (ENAT) 69-59N 023-22E 3M
Oct 21, 2018 - 01:50 AM EDT / 2018.10.21 0550 UTC
Wind: from the S (180 degrees) at 13 MPH (11 KT):0
Visibility: greater than 7 mile(s):0
Sky conditions: overcast
Temperature: 41 F (5 C)
Dew Point: 33 F (1 C)
Relative Humidity: 75%
Pressure (altimeter): 29.32 in. Hg (0993 hPa)
ob: ENAT 210550Z AUTO 18011KT 9999 BKN072/// OVC086/// 05/01 Q0993 RMK WIND 700FT 19024KT
cycle: 6

Station Type Date Time Source
ENAT TAF 2008/11/30 23:00 UTC NOAA

TAF TAF ENAT 302300Z 3023/0102 22005KT 7000 -SN FEW008 BKN020
TEMPO 3023/0102 3000 -SN VV012


Example: see airport list